Serbakul, Russia
Current Conditions -  °F | °C
As of 4:30 AM on Thursday 23 Oct 2014 (Local Time) from UNOO Reporting Station
Broken Clouds Broken Clouds  
Wind Chill: 28°   Ceiling: 2400
Heat Index: 34°   Visibility: 6mi
Dew Point: 32°   Wind: 7mph
Humidity: 93%   Direction: 160°SSE
Pressure: 29.83"   Gusts: NA
Location:  54.63°N, 72.43°E
Report Text: UNOO 222230Z 16003MPS 9999 BKN024CB 01/M00 Q1010 25810545 NOSIGRMK QFE749
Loading
Personal Weather Stations






























Interactive Weather Map
Tropical Storm Tracking
New forecast layout! Learn more

10-Day Weather Forecast

Advertisements
Track Severe Weather on mobile